createdAt,value
2023-02-11T00:02:30.359Z,99055.84
2023-02-11T00:05:17.166Z,99053.34
2023-02-11T00:08:03.999Z,99053.41
2023-02-11T00:10:58.246Z,99051.84
2023-02-11T00:13:45.689Z,99052.78
2023-02-11T00:16:32.926Z,99057.22
2023-02-11T00:19:20.366Z,99049.47
2023-02-11T00:22:07.772Z,99050.44
2023-02-11T00:24:54.843Z,99045.34
2023-02-11T00:27:41.661Z,99038.44
2023-02-11T00:30:28.514Z,99040.34
2023-02-11T00:33:15.290Z,99031.66
2023-02-11T00:36:09.518Z,99032.56
2023-02-11T00:38:58.017Z,99031.03
2023-02-11T00:41:44.801Z,99032.84
2023-02-11T00:44:31.605Z,99035.47
2023-02-11T00:47:18.383Z,99039.00
2023-02-11T00:50:06.198Z,99039.03
2023-02-11T00:52:52.936Z,99045.28
2023-02-11T00:55:39.727Z,99044.41
2023-02-11T00:58:27.040Z,99041.88
2023-02-11T01:01:13.860Z,99041.09
2023-02-11T01:04:00.757Z,99045.47
2023-02-11T01:06:47.774Z,99041.25
2023-02-11T01:09:34.567Z,99031.78
2023-02-11T01:12:21.457Z,99023.00
2023-02-11T01:15:09.324Z,99022.16
2023-02-11T01:17:56.121Z,99017.88
2023-02-11T01:20:43.003Z,99012.78
2023-02-11T01:23:30.948Z,99018.91
2023-02-11T01:26:17.754Z,99021.59
2023-02-11T01:29:04.656Z,99005.16
2023-02-11T01:31:52.376Z,98999.94
2023-02-11T01:34:39.221Z,98995.59
2023-02-11T01:37:26.198Z,98989.66
2023-02-11T01:40:16.187Z,98992.34
2023-02-11T01:43:02.968Z,98971.59
2023-02-11T01:45:58.774Z,98974.19
2023-02-11T01:48:48.916Z,98974.19
2023-02-11T01:51:44.660Z,98966.50
2023-02-11T01:54:55.761Z,98967.44
2023-02-11T01:57:46.096Z,98962.28
2023-02-11T02:00:37.215Z,98961.41
2023-02-11T02:03:24.627Z,98957.94
2023-02-11T02:06:27.188Z,98951.13
2023-02-11T02:09:21.608Z,98952.88
2023-02-11T02:12:08.395Z,98961.69
2023-02-11T02:15:31.617Z,98970.44
2023-02-11T02:18:55.791Z,98973.97
2023-02-11T02:21:51.097Z,98976.66
2023-02-11T02:24:44.746Z,98979.31
2023-02-11T02:27:50.065Z,98978.47
2023-02-11T02:30:53.627Z,98971.63
2023-02-11T02:34:09.634Z,98973.47
2023-02-11T02:37:03.499Z,98978.78
2023-02-11T02:39:50.523Z,98969.22
2023-02-11T02:42:38.823Z,98969.22
2023-02-11T02:45:25.599Z,98964.13
2023-02-11T02:48:29.078Z,98960.66
2023-02-11T02:51:44.141Z,98962.44
2023-02-11T02:54:52.077Z,98945.13
2023-02-11T02:58:14.927Z,98927.88
2023-02-11T03:01:28.773Z,98933.94
2023-02-11T03:04:39.840Z,98929.63
2023-02-11T03:07:48.767Z,98929.69
2023-02-11T03:10:42.404Z,98927.16
2023-02-11T03:13:34.578Z,98919.47
2023-02-11T03:16:26.101Z,98936.75
2023-02-11T03:19:16.857Z,98925.53
2023-02-11T03:22:06.511Z,98940.25
2023-02-11T03:24:53.749Z,98948.16
2023-02-11T03:28:11.261Z,98952.53
2023-02-11T03:31:10.208Z,98948.22
2023-02-11T03:34:16.773Z,98943.91
2023-02-11T03:37:08.403Z,98941.41
2023-02-11T03:40:00.148Z,98943.06
2023-02-11T03:42:53.860Z,98948.31
2023-02-11T03:45:40.947Z,98942.28
2023-02-11T03:48:37.975Z,98941.53
2023-02-11T03:51:25.554Z,98938.00
2023-02-11T03:54:15.317Z,98931.09
2023-02-11T03:57:02.732Z,98929.41
2023-02-11T03:59:54.050Z,98925.91
2023-02-11T04:02:41.390Z,98927.69
2023-02-11T04:05:28.260Z,98919.09
2023-02-11T04:08:15.185Z,98929.44
2023-02-11T04:11:02.066Z,98922.47
2023-02-11T04:13:48.836Z,98919.00
2023-02-11T04:16:35.642Z,98914.72
2023-02-11T04:19:22.432Z,98912.09
2023-02-11T04:22:09.258Z,98911.16
2023-02-11T04:24:56.116Z,98906.94
2023-02-11T04:27:42.896Z,98909.50
2023-02-11T04:30:29.683Z,98917.31
2023-02-11T04:33:16.761Z,98926.00
2023-02-11T04:36:03.790Z,98910.34
2023-02-11T04:38:50.565Z,98890.38
2023-02-11T04:41:37.343Z,98877.31
2023-02-11T04:44:24.119Z,98885.16
2023-02-11T04:47:12.723Z,98893.00
2023-02-11T04:49:59.572Z,98886.06
2023-02-11T04:52:46.458Z,98898.13
2023-02-11T04:55:33.225Z,98896.44
2023-02-11T04:58:20.363Z,98886.00
2023-02-11T05:01:08.211Z,98887.81
2023-02-11T05:03:55.028Z,98892.91
2023-02-11T05:06:41.824Z,98898.13
2023-02-11T05:09:28.875Z,98908.56
2023-02-11T05:12:18.040Z,98905.13
2023-02-11T05:15:07.706Z,98908.66
2023-02-11T05:17:54.619Z,98917.25
2023-02-11T05:20:42.515Z,98907.72
2023-02-11T05:23:29.268Z,98903.44
2023-02-11T05:26:16.152Z,98884.31
2023-02-11T05:29:03.007Z,98876.50
2023-02-11T05:31:49.750Z,98864.28
2023-02-11T05:34:36.891Z,98872.13
2023-02-11T05:37:23.880Z,98866.88
2023-02-11T05:40:11.556Z,98876.41
2023-02-11T05:42:58.493Z,98864.28
2023-02-11T05:45:58.896Z,98862.56
2023-02-11T05:48:45.691Z,98860.75
2023-02-11T05:51:36.893Z,98857.28
2023-02-11T05:54:23.706Z,98865.97
2023-02-11T05:57:10.482Z,98857.28
2023-02-11T05:59:57.268Z,98858.06
2023-02-11T06:02:44.191Z,98852.84
2023-02-11T06:05:31.411Z,98847.78
2023-02-11T06:08:18.485Z,98859.81
2023-02-11T06:11:05.308Z,98844.16
2023-02-11T06:13:52.073Z,98861.53
2023-02-11T06:16:38.932Z,98863.34
2023-02-11T06:19:30.999Z,98865.03
2023-02-11T06:22:17.818Z,98855.44
2023-02-11T06:25:05.316Z,98850.19
2023-02-11T06:27:52.094Z,98846.78
2023-02-11T06:30:38.889Z,98856.31
2023-02-11T06:33:25.651Z,98860.63
2023-02-11T06:36:18.480Z,98857.16
2023-02-11T06:39:05.452Z,98862.38
2023-02-11T06:41:52.248Z,98861.47
2023-02-11T06:44:39.097Z,98859.81
2023-02-11T06:47:25.905Z,98854.47
2023-02-11T06:50:14.255Z,98857.06
2023-02-11T06:53:01.542Z,98865.84
2023-02-11T06:55:48.598Z,98864.06
2023-02-11T06:58:35.523Z,98852.78
2023-02-11T07:01:23.383Z,98845.81
2023-02-11T07:04:10.688Z,98853.53
2023-02-11T07:06:57.537Z,98853.50
2023-02-11T07:09:44.426Z,98848.41
2023-02-11T07:12:31.557Z,98857.03
2023-02-11T07:15:18.445Z,98852.66
2023-02-11T07:18:05.251Z,98860.47
2023-02-11T07:20:52.091Z,98851.72
2023-02-11T07:23:40.716Z,98851.66
2023-02-11T07:26:28.949Z,98850.88
2023-02-11T07:29:15.750Z,98859.47
2023-02-11T07:32:02.600Z,98871.69
2023-02-11T07:34:49.510Z,98870.78
2023-02-11T07:37:36.484Z,98868.19
2023-02-11T07:40:23.249Z,98870.78
2023-02-11T07:43:10.014Z,98877.69
2023-02-11T07:45:56.777Z,98879.38
2023-02-11T07:48:43.676Z,98888.91
2023-02-11T07:51:31.263Z,98889.81
2023-02-11T07:54:18.020Z,98880.22
2023-02-11T07:57:08.371Z,98875.84
2023-02-11T08:00:04.216Z,98875.00
2023-02-11T08:02:50.938Z,98877.56
2023-02-11T08:05:38.618Z,98872.34
2023-02-11T08:08:28.571Z,98869.66
2023-02-11T08:11:18.605Z,98874.88
2023-02-11T08:14:05.398Z,98887.91
2023-02-11T08:16:52.200Z,98896.59
2023-02-11T08:19:39.213Z,98895.63
2023-02-11T08:22:26.032Z,98890.53
2023-02-11T08:25:15.127Z,98902.59
2023-02-11T08:28:01.971Z,98901.69
2023-02-11T08:30:49.022Z,98900.75
2023-02-11T08:33:40.596Z,98885.97
2023-02-11T08:36:32.701Z,98892.03
2023-02-11T08:39:23.129Z,98894.56
2023-02-11T08:42:10.078Z,98891.91
2023-02-11T08:44:59.455Z,98894.44
2023-02-11T08:47:46.086Z,98897.75
2023-02-11T08:50:32.857Z,98901.13
2023-02-11T08:53:19.675Z,98885.44
2023-02-11T08:56:06.932Z,98889.84
2023-02-11T08:58:57.027Z,98885.41
2023-02-11T09:01:44.362Z,98894.00
2023-02-11T09:04:31.359Z,98907.94
2023-02-11T09:07:18.178Z,98894.88
2023-02-11T09:10:06.306Z,98886.03
2023-02-11T09:12:53.119Z,98879.81
2023-02-11T09:15:39.946Z,98887.75
2023-02-11T09:18:26.986Z,98887.56
2023-02-11T09:21:20.338Z,98886.72
2023-02-11T09:24:07.260Z,98885.75
2023-02-11T09:26:58.532Z,98891.78
2023-02-11T09:29:48.592Z,98891.69
2023-02-11T09:32:35.838Z,98884.69
2023-02-11T09:35:22.634Z,98877.66
2023-02-11T09:38:09.673Z,98870.88
2023-02-11T09:40:56.434Z,98877.56
2023-02-11T09:43:46.560Z,98873.19
2023-02-11T09:46:44.517Z,98880.13
2023-02-11T09:49:43.689Z,98882.66
2023-02-11T09:52:59.323Z,98893.88
2023-02-11T09:55:48.418Z,98884.34
2023-02-11T09:58:36.860Z,98893.72
2023-02-11T10:01:57.006Z,98876.31
2023-02-11T10:05:09.530Z,98882.28
2023-02-11T10:08:16.571Z,98881.44
2023-02-11T10:11:22.637Z,98867.41
2023-02-11T10:14:47.124Z,98883.84
2023-02-11T10:17:55.435Z,98889.06
2023-02-11T10:20:50.087Z,98886.31
2023-02-11T10:23:40.873Z,98883.69
2023-02-11T10:26:30.915Z,98876.56
2023-02-11T10:29:40.745Z,98880.81
2023-02-11T10:32:30.247Z,98875.50
2023-02-11T10:35:23.966Z,98858.97
2023-02-11T10:38:11.413Z,98862.38
2023-02-11T10:40:58.173Z,98870.03
2023-02-11T10:43:48.206Z,98866.53
2023-02-11T10:46:40.179Z,98862.84
2023-02-11T10:49:38.603Z,98864.38
2023-02-11T10:52:28.420Z,98855.56
2023-02-11T10:55:18.074Z,98848.41
2023-02-11T10:58:04.901Z,98842.16
2023-02-11T11:00:53.887Z,98832.41
2023-02-11T11:03:47.815Z,98844.34
2023-02-11T11:06:35.237Z,98865.13
2023-02-11T11:09:28.971Z,98864.19
2023-02-11T11:12:26.140Z,98854.41
2023-02-11T11:15:18.160Z,98864.78
2023-02-11T11:18:31.478Z,98855.19
2023-02-11T11:21:27.989Z,98856.03
2023-02-11T11:24:20.867Z,98856.75
2023-02-11T11:27:15.942Z,98848.91
2023-02-11T11:30:03.353Z,98847.88
2023-02-11T11:32:50.154Z,98842.66
2023-02-11T11:35:37.003Z,98850.44
2023-02-11T11:38:24.613Z,98839.81
2023-02-11T11:41:21.522Z,98834.50
2023-02-11T11:44:28.116Z,98834.41
2023-02-11T11:47:20.688Z,98836.13
2023-02-11T11:50:22.530Z,98835.97
2023-02-11T11:53:18.723Z,98839.44
2023-02-11T11:56:09.540Z,98831.50
2023-02-11T11:59:03.769Z,98827.88
2023-02-11T12:02:21.521Z,98827.78
2023-02-11T12:05:59.209Z,98812.03
2023-02-11T12:09:08.799Z,98797.63
2023-02-11T12:11:58.931Z,98793.78
2023-02-11T12:14:57.813Z,98794.31
2023-02-11T12:18:22.006Z,98813.16
2023-02-11T12:21:20.623Z,98794.47
2023-02-11T12:24:45.814Z,98789.78
2023-02-11T12:27:45.177Z,98785.06
2023-02-11T12:30:51.239Z,98783.13
2023-02-11T12:33:44.762Z,98782.72
2023-02-11T12:37:09.250Z,98787.69
2023-02-11T12:40:14.066Z,98781.38
2023-02-11T12:43:16.565Z,98771.81
2023-02-11T12:46:39.476Z,98761.34
2023-02-11T12:49:58.713Z,98762.28
2023-02-11T12:53:25.708Z,98757.03
2023-02-11T12:56:50.937Z,98762.28
2023-02-11T13:00:42.391Z,98755.38
2023-02-11T13:04:06.354Z,98766.75
2023-02-11T13:07:57.299Z,98761.50
2023-02-11T13:14:15.588Z,98777.06
2023-02-11T13:17:09.030Z,98759.94
2023-02-11T13:20:06.549Z,98779.50
2023-02-11T13:23:04.666Z,98765.91
2023-02-11T13:26:06.100Z,98759.66
2023-02-11T13:29:21.797Z,98774.78
2023-02-11T13:32:20.426Z,98762.53
2023-02-11T13:35:30.922Z,98755.88
2023-02-11T13:38:24.115Z,98761.69
2023-02-11T13:41:24.776Z,98762.09
2023-02-11T13:44:11.645Z,98758.56
2023-02-11T13:47:10.296Z,98738.91
2023-02-11T13:50:04.043Z,98745.72
2023-02-11T13:53:03.356Z,98740.41
2023-02-11T13:56:00.518Z,98755.53
2023-02-11T13:58:51.413Z,98734.97
2023-02-11T14:02:07.432Z,98748.34
2023-02-11T14:05:22.370Z,98746.47
2023-02-11T14:08:47.366Z,98732.03
2023-02-11T14:22:40.661Z,98736.59
2023-02-11T14:25:32.305Z,98747.81
2023-02-11T14:28:24.619Z,98744.19
2023-02-11T14:31:21.423Z,98753.94
2023-02-11T14:34:24.799Z,98757.06
2023-02-11T14:37:22.572Z,98734.81
2023-02-11T14:40:29.809Z,98730.63
2023-02-11T14:43:20.183Z,98727.56
2023-02-11T14:46:07.081Z,98727.31
2023-02-11T14:48:58.390Z,98734.78
2023-02-11T14:51:45.162Z,98735.38
2023-02-11T14:54:33.304Z,98725.56
2023-02-11T14:57:22.387Z,98721.81
2023-02-11T15:00:17.658Z,98713.66
2023-02-11T15:03:07.264Z,98727.31
2023-02-11T15:05:56.921Z,98727.06
2023-02-11T15:08:47.298Z,98720.69
2023-02-11T15:11:39.713Z,98717.06
2023-02-11T15:14:32.369Z,98719.56
2023-02-11T15:17:24.686Z,98730.63
2023-02-11T15:20:24.666Z,98736.53
2023-02-11T15:23:20.549Z,98740.75
2023-02-11T15:26:15.217Z,98748.44
2023-02-11T15:29:01.983Z,98752.75
2023-02-11T15:32:03.493Z,98753.41
2023-02-11T15:34:52.610Z,98752.47
2023-02-11T15:37:39.895Z,98759.25
2023-02-11T15:40:32.972Z,98759.78
2023-02-11T15:43:19.761Z,98757.06
2023-02-11T15:46:06.797Z,98757.81
2023-02-11T15:48:54.826Z,98765.59
2023-02-11T15:51:45.462Z,98763.72
2023-02-11T15:54:32.497Z,98767.97
2023-02-11T15:57:20.222Z,98774.69
2023-02-11T16:00:08.119Z,98767.66
2023-02-11T16:02:54.933Z,98765.69
2023-02-11T16:05:41.750Z,98755.19
2023-02-11T16:08:29.901Z,98760.25
2023-02-11T16:11:31.097Z,98775.81
2023-02-11T16:14:23.948Z,98783.59
2023-02-11T16:17:13.230Z,98779.19
2023-02-11T16:19:59.892Z,98789.50
2023-02-11T16:22:47.143Z,98782.38
2023-02-11T16:25:37.475Z,98790.16
2023-02-11T16:28:25.729Z,98776.25
2023-02-11T16:31:13.269Z,98790.16
2023-02-11T16:34:00.112Z,98790.06
2023-02-11T16:36:47.724Z,98794.47
2023-02-11T16:39:34.618Z,98797.19
2023-02-11T16:42:23.410Z,98806.69
2023-02-11T16:45:18.767Z,98810.88
2023-02-11T16:48:17.103Z,98804.25
2023-02-11T16:51:09.356Z,98807.72
2023-02-11T16:53:56.184Z,98805.91
2023-02-11T16:56:44.063Z,98829.94
2023-02-11T16:59:30.880Z,98825.44
2023-02-11T17:02:24.297Z,98823.75
2023-02-11T17:05:22.934Z,98822.03
2023-02-11T17:08:13.080Z,98822.88
2023-02-11T17:11:05.312Z,98829.94
2023-02-11T17:13:52.108Z,98831.63
2023-02-11T17:16:39.168Z,98837.53
2023-02-11T17:19:31.162Z,98830.50
2023-02-11T17:22:18.671Z,98833.03
2023-02-11T17:25:06.590Z,98827.59
2023-02-11T17:27:53.735Z,98830.94
2023-02-11T17:30:44.722Z,98832.72
2023-02-11T17:33:31.794Z,98832.47
2023-02-11T17:36:19.496Z,98843.88
2023-02-11T17:39:08.259Z,98836.78
2023-02-11T17:41:55.202Z,98834.78
2023-02-11T17:44:46.431Z,98846.25
2023-02-11T17:47:36.390Z,98853.91
2023-02-11T17:50:23.210Z,98859.94
2023-02-11T17:53:12.416Z,98859.09
2023-02-11T17:56:11.247Z,98865.09
2023-02-11T17:59:02.492Z,98861.44
2023-02-11T18:01:49.282Z,98860.47
2023-02-11T18:04:36.520Z,98864.81
2023-02-11T18:07:23.428Z,98856.84
2023-02-11T18:10:10.719Z,98861.13
2023-02-11T18:12:57.464Z,98860.31
2023-02-11T18:15:44.349Z,98868.09
2023-02-11T18:18:31.262Z,98856.66
2023-02-11T18:21:19.888Z,98854.66
2023-02-11T18:24:07.308Z,98858.25
2023-02-11T18:26:54.147Z,98856.34
2023-02-11T18:29:40.880Z,98872.03
2023-02-11T18:32:30.791Z,98871.16
2023-02-11T18:35:17.592Z,98869.41
2023-02-11T18:38:04.387Z,98867.50
2023-02-11T18:40:52.335Z,98881.50
2023-02-11T18:43:40.005Z,98872.78
2023-02-11T18:46:26.829Z,98877.06
2023-02-11T18:49:14.543Z,98879.63
2023-02-11T18:52:01.298Z,98883.94
2023-02-11T18:54:51.332Z,98895.28
2023-02-11T18:57:38.085Z,98885.53
2023-02-11T19:00:26.984Z,98882.91
2023-02-11T19:03:14.088Z,98882.91
2023-02-11T19:06:00.853Z,98883.63
2023-02-11T19:08:47.939Z,98883.75
2023-02-11T19:11:54.309Z,98884.50
2023-02-11T19:14:41.409Z,98893.25
2023-02-11T19:17:28.154Z,98894.91
2023-02-11T19:20:15.012Z,98905.56
2023-02-11T19:23:01.823Z,98899.22
2023-02-11T19:25:48.817Z,98898.38
2023-02-11T19:28:37.064Z,98894.81
2023-02-11T19:31:24.109Z,98888.72
2023-02-11T19:34:14.064Z,98889.56
2023-02-11T19:37:01.602Z,98887.88
2023-02-11T19:39:51.552Z,98893.91
2023-02-11T19:42:38.733Z,98895.56
2023-02-11T19:45:26.862Z,98894.63
2023-02-11T19:48:13.586Z,98882.44
2023-02-11T19:51:07.936Z,98882.44
2023-02-11T19:53:54.718Z,98894.63
2023-02-11T19:56:41.614Z,98882.31
2023-02-11T19:59:28.406Z,98876.22
2023-02-11T20:02:18.901Z,98881.59
2023-02-11T20:05:06.338Z,98877.16
2023-02-11T20:07:53.098Z,98882.22
2023-02-11T20:10:40.376Z,98884.75
2023-02-11T20:13:27.939Z,98878.97
2023-02-11T20:16:17.226Z,98877.81
2023-02-11T20:19:03.981Z,98882.13
2023-02-11T20:21:55.629Z,98877.94
2023-02-11T20:24:50.503Z,98892.66
2023-02-11T20:27:37.720Z,98888.34
2023-02-11T20:30:24.842Z,98908.53
2023-02-11T20:33:11.642Z,98905.06
2023-02-11T20:36:04.481Z,98906.75
2023-02-11T20:38:51.613Z,98904.94
2023-02-11T20:41:39.970Z,98910.31
2023-02-11T20:44:27.358Z,98908.44
2023-02-11T20:47:14.274Z,98899.16
2023-02-11T20:50:01.168Z,98903.28
2023-02-11T20:52:48.536Z,98912.00
2023-02-11T20:55:37.897Z,98908.59
2023-02-11T20:58:30.936Z,98908.34
2023-02-11T21:01:20.722Z,98908.44
2023-02-11T21:04:12.994Z,98903.09
2023-02-11T21:07:01.616Z,98904.31
2023-02-11T21:09:49.324Z,98899.88
2023-02-11T21:12:38.878Z,98892.94
2023-02-11T21:15:25.714Z,98909.25
2023-02-11T21:18:13.271Z,98912.84
2023-02-11T21:21:00.175Z,98910.97
2023-02-11T21:23:47.621Z,98904.13
2023-02-11T21:26:35.533Z,98916.31
2023-02-11T21:29:22.283Z,98926.75
2023-02-11T21:32:09.081Z,98925.81
2023-02-11T21:34:55.976Z,98924.31
2023-02-11T21:37:42.742Z,98928.44
2023-02-11T21:40:38.688Z,98924.19
2023-02-11T21:43:25.541Z,98945.16
2023-02-11T21:46:14.477Z,98943.56
2023-02-11T21:49:01.506Z,98945.34
2023-02-11T21:51:48.390Z,98955.69
2023-02-11T21:54:35.178Z,98960.00
2023-02-11T21:57:21.922Z,98953.78
2023-02-11T22:00:09.832Z,98961.78
2023-02-11T22:02:56.718Z,98953.88
2023-02-11T22:05:46.571Z,98960.00
2023-02-11T22:08:34.805Z,98961.66
2023-02-11T22:11:21.641Z,98957.38
2023-02-11T22:14:08.546Z,98953.78
2023-02-11T22:16:55.375Z,98961.78
2023-02-11T22:19:42.205Z,98962.50
2023-02-11T22:22:29.347Z,98962.50
2023-02-11T22:25:19.355Z,98951.44
2023-02-11T22:28:06.265Z,98946.06
2023-02-11T22:30:55.289Z,98952.88
2023-02-11T22:33:42.722Z,98944.41
2023-02-11T22:36:31.794Z,98941.78
2023-02-11T22:39:21.093Z,98940.75
2023-02-11T22:42:07.859Z,98951.06
2023-02-11T22:44:54.750Z,98944.97
2023-02-11T22:47:41.609Z,98943.44
2023-02-11T22:50:28.408Z,98950.41
2023-02-11T22:53:15.171Z,98954.06
2023-02-11T22:56:05.632Z,98955.56
2023-02-11T22:58:53.652Z,98953.88
2023-02-11T23:01:40.674Z,98956.59
2023-02-11T23:04:27.518Z,98954.19
2023-02-11T23:07:22.057Z,98951.16
2023-02-11T23:10:09.901Z,98954.63
2023-02-11T23:12:56.696Z,98955.69
2023-02-11T23:15:45.174Z,98959.22
2023-02-11T23:18:32.175Z,98968.84
2023-02-11T23:21:21.890Z,98970.50
2023-02-11T23:24:12.260Z,98970.41
2023-02-11T23:26:59.109Z,98975.66
2023-02-11T23:29:45.879Z,98967.13
2023-02-11T23:32:32.813Z,98970.50
2023-02-11T23:35:23.159Z,98975.78
2023-02-11T23:38:13.496Z,98968.19
2023-02-11T23:41:07.444Z,98965.25
2023-02-11T23:43:56.304Z,98967.13
2023-02-11T23:47:06.299Z,98966.94
2023-02-11T23:49:54.228Z,98958.31
2023-02-11T23:52:44.119Z,98967.13
2023-02-11T23:55:31.007Z,98967.34
2023-02-11T23:58:17.957Z,98975.13
